createdAt,value
2018-01-20T00:01:24.390Z,10.25
2018-01-20T00:03:54.826Z,16.75
2018-01-20T00:06:25.382Z,13.75
2018-01-20T00:08:56.023Z,14.25
2018-01-20T00:11:37.496Z,14.00
2018-01-20T00:14:12.095Z,15.75
2018-01-20T00:16:43.859Z,10.00
2018-01-20T00:19:19.068Z,15.00
2018-01-20T00:21:53.909Z,17.75
2018-01-20T00:24:25.871Z,13.00
2018-01-20T00:26:56.423Z,13.50
2018-01-20T00:29:27.193Z,12.00
2018-01-20T00:31:57.986Z,11.00
2018-01-20T00:34:28.375Z,13.75
2018-01-20T00:36:58.720Z,16.50
2018-01-20T00:39:29.074Z,14.00
2018-01-20T00:42:00.081Z,14.50
2018-01-20T00:44:30.893Z,13.25
2018-01-20T00:47:01.358Z,11.50
2018-01-20T00:49:32.801Z,17.00
2018-01-20T00:52:03.423Z,11.75
2018-01-20T00:54:34.687Z,16.00
2018-01-20T00:57:04.959Z,12.75
2018-01-20T00:59:35.402Z,10.75
2018-01-20T01:02:06.467Z,12.25
2018-01-20T01:04:37.221Z,18.75
2018-01-20T01:07:08.318Z,14.00
2018-01-20T01:09:38.615Z,10.50
2018-01-20T01:12:08.893Z,14.00
2018-01-20T01:14:39.519Z,12.00
2018-01-20T01:17:10.991Z,11.25
2018-01-20T01:19:41.302Z,13.00
2018-01-20T01:22:13.325Z,12.75
2018-01-20T01:24:44.371Z,15.00
2018-01-20T01:27:15.103Z,13.25
2018-01-20T01:29:45.751Z,14.00
2018-01-20T01:32:17.317Z,13.00
2018-01-20T01:34:47.798Z,13.00
2018-01-20T01:37:18.074Z,18.75
2018-01-20T01:39:48.898Z,14.75
2018-01-20T01:42:19.748Z,16.25
2018-01-20T01:44:50.907Z,20.00
2018-01-20T01:47:22.016Z,20.00
2018-01-20T01:49:52.472Z,19.50
2018-01-20T01:52:22.819Z,13.00
2018-01-20T01:54:53.560Z,15.00
2018-01-20T01:57:23.828Z,16.75
2018-01-20T01:59:54.920Z,17.75
2018-01-20T02:02:26.083Z,21.00
2018-01-20T02:04:56.836Z,16.75
2018-01-20T02:07:27.172Z,14.25
2018-01-20T02:09:57.515Z,11.50
2018-01-20T02:12:28.026Z,12.50
2018-01-20T02:14:59.182Z,14.75
2018-01-20T02:17:30.186Z,13.25
2018-01-20T02:20:00.521Z,14.75
2018-01-20T02:22:31.238Z,15.75
2018-01-20T02:25:01.722Z,14.75
2018-01-20T02:27:32.736Z,12.25
2018-01-20T02:30:05.287Z,12.25
2018-01-20T02:32:35.946Z,11.00
2018-01-20T02:35:06.440Z,13.75
2018-01-20T02:37:36.686Z,12.25
2018-01-20T02:40:07.967Z,13.50
2018-01-20T02:42:38.634Z,14.75
2018-01-20T02:45:12.493Z,13.50
2018-01-20T02:47:43.380Z,13.00
2018-01-20T02:50:13.625Z,16.50
2018-01-20T02:52:43.977Z,13.25
2018-01-20T02:55:16.040Z,11.00
2018-01-20T02:57:46.571Z,10.25
2018-01-20T03:00:18.044Z,10.50
2018-01-20T03:02:48.718Z,11.00
2018-01-20T03:05:18.983Z,14.75
2018-01-20T03:07:49.395Z,10.25
2018-01-20T03:10:19.600Z,10.00
2018-01-20T03:12:49.967Z,11.00
2018-01-20T03:15:21.797Z,9.75
2018-01-20T03:17:52.163Z,10.75
2018-01-20T03:20:22.531Z,11.25
2018-01-20T03:22:53.234Z,8.00
2018-01-20T03:25:23.521Z,8.50
2018-01-20T03:27:53.785Z,9.75
2018-01-20T03:30:24.378Z,10.00
2018-01-20T03:32:54.713Z,9.00
2018-01-20T03:35:26.358Z,11.25
2018-01-20T03:37:56.554Z,11.75
2018-01-20T03:40:26.692Z,10.25
2018-01-20T03:42:57.115Z,13.75
2018-01-20T03:45:27.565Z,8.75
2018-01-20T03:47:57.850Z,6.25
2018-01-20T03:50:28.034Z,9.50
2018-01-20T03:52:58.379Z,10.00
2018-01-20T03:55:28.991Z,11.25
2018-01-20T03:58:00.795Z,10.75
2018-01-20T04:00:32.220Z,9.50
2018-01-20T04:03:02.695Z,12.50
2018-01-20T04:05:34.285Z,12.00
2018-01-20T04:08:06.035Z,8.00
2018-01-20T04:10:36.856Z,13.25
2018-01-20T04:13:07.234Z,14.50
2018-01-20T04:15:38.114Z,8.50
2018-01-20T04:18:08.257Z,8.00
2018-01-20T04:20:38.565Z,10.00
2018-01-20T04:23:10.521Z,12.25
2018-01-20T04:25:40.892Z,10.50
2018-01-20T04:28:12.080Z,13.00
2018-01-20T04:30:42.720Z,13.25
2018-01-20T04:33:13.580Z,10.75
2018-01-20T04:35:44.166Z,11.75
2018-01-20T04:38:19.688Z,13.50
2018-01-20T04:40:49.894Z,12.25
2018-01-20T04:43:20.578Z,13.25
2018-01-20T04:45:50.763Z,14.75
2018-01-20T04:48:21.094Z,8.00
2018-01-20T04:50:51.421Z,13.00
2018-01-20T04:53:24.092Z,11.75
2018-01-20T04:55:54.683Z,10.75
2018-01-20T04:58:25.562Z,10.00
2018-01-20T05:00:56.140Z,12.00
2018-01-20T05:03:26.660Z,14.50
2018-01-20T05:05:57.242Z,11.00
2018-01-20T05:08:27.656Z,15.00
2018-01-20T05:10:58.237Z,13.50
2018-01-20T05:13:28.592Z,10.00
2018-01-20T05:15:59.702Z,11.75
2018-01-20T05:18:30.348Z,11.00
2018-01-20T05:21:00.860Z,11.75
2018-01-20T05:23:30.921Z,11.50
2018-01-20T05:26:02.470Z,12.00
2018-01-20T05:28:32.923Z,10.00
2018-01-20T05:31:03.484Z,11.75
2018-01-20T05:33:33.811Z,11.25
2018-01-20T05:36:05.459Z,12.75
2018-01-20T05:38:35.784Z,10.25
2018-01-20T05:43:40.399Z,12.75
2018-01-20T05:46:14.362Z,12.75
2018-01-20T05:48:45.042Z,11.50
2018-01-20T05:51:15.327Z,12.50
2018-01-20T05:53:45.677Z,11.00
2018-01-20T05:56:16.295Z,11.00
2018-01-20T05:58:46.508Z,11.75
2018-01-20T06:01:17.629Z,10.50
2018-01-20T06:03:49.448Z,10.00
2018-01-20T06:06:19.733Z,11.50
2018-01-20T06:08:50.134Z,11.50
2018-01-20T06:11:20.758Z,9.00
2018-01-20T06:13:51.859Z,10.75
2018-01-20T06:16:23.036Z,10.50
2018-01-20T06:18:56.960Z,11.50
2018-01-20T06:21:28.140Z,10.25
2018-01-20T06:23:59.379Z,11.75
2018-01-20T06:26:30.048Z,9.00
2018-01-20T06:29:00.406Z,10.75
2018-01-20T06:31:32.324Z,12.25
2018-01-20T06:34:05.684Z,9.50
2018-01-20T06:36:36.814Z,11.25
2018-01-20T06:39:08.727Z,12.50
2018-01-20T06:41:43.662Z,10.00
2018-01-20T06:44:15.498Z,13.00
2018-01-20T06:46:46.011Z,14.75
2018-01-20T06:49:17.949Z,10.50
2018-01-20T06:51:48.899Z,17.75
2018-01-20T06:54:20.701Z,15.25
2018-01-20T06:56:51.376Z,13.75
2018-01-20T06:59:24.249Z,14.75
2018-01-20T07:01:59.637Z,14.25
2018-01-20T07:04:30.167Z,12.25
2018-01-20T07:07:00.938Z,17.00
2018-01-20T07:09:34.950Z,14.75
2018-01-20T07:12:05.727Z,16.25
2018-01-20T07:14:37.560Z,12.50
2018-01-20T07:17:12.660Z,13.50
2018-01-20T07:19:44.185Z,13.75
2018-01-20T07:22:16.941Z,12.00
2018-01-20T07:24:48.583Z,15.00
2018-01-20T07:27:19.274Z,13.00
2018-01-20T07:29:49.819Z,16.00
2018-01-20T07:32:21.144Z,13.00
2018-01-20T07:34:54.780Z,12.50
2018-01-20T07:37:25.808Z,11.00
2018-01-20T07:40:03.907Z,15.75
2018-01-20T07:42:38.562Z,11.50
2018-01-20T07:45:16.937Z,11.75
2018-01-20T07:47:47.539Z,14.75
2018-01-20T07:50:19.071Z,10.50
2018-01-20T07:52:50.289Z,10.00
2018-01-20T07:55:21.130Z,10.00
2018-01-20T07:57:52.945Z,9.75
2018-01-20T08:00:23.386Z,10.50
2018-01-20T08:02:53.752Z,9.50
2018-01-20T08:05:24.053Z,7.00
2018-01-20T08:07:54.399Z,8.25
2018-01-20T08:10:24.951Z,11.00
2018-01-20T08:12:55.272Z,9.75
2018-01-20T08:15:25.748Z,9.25
2018-01-20T08:17:57.191Z,8.50
2018-01-20T08:20:28.874Z,9.50
2018-01-20T08:22:59.696Z,9.75
2018-01-20T08:25:29.994Z,8.00
2018-01-20T08:28:00.378Z,8.00
2018-01-20T08:30:32.890Z,8.50
2018-01-20T08:33:05.948Z,9.75
2018-01-20T08:35:41.054Z,9.75
2018-01-20T08:38:11.888Z,8.00
2018-01-20T08:40:42.700Z,5.50
2018-01-20T08:43:30.954Z,9.00
2018-01-20T08:46:09.830Z,7.25
2018-01-20T08:48:45.897Z,9.50
2018-01-20T08:51:25.810Z,10.00
2018-01-20T08:53:56.746Z,8.25
2018-01-20T08:56:29.644Z,8.50
2018-01-20T08:59:18.032Z,8.00
2018-01-20T09:01:52.426Z,8.00
2018-01-20T09:04:35.672Z,12.00
2018-01-20T09:07:09.306Z,6.00
2018-01-20T09:09:40.767Z,8.00
2018-01-20T09:12:12.238Z,8.00
2018-01-20T09:14:45.531Z,6.00
2018-01-20T09:17:20.450Z,9.75
2018-01-20T09:19:52.388Z,9.50
2018-01-20T09:22:27.521Z,12.50
2018-01-20T09:24:58.288Z,10.25
2018-01-20T09:27:30.123Z,10.50
2018-01-20T09:30:08.862Z,9.75
2018-01-20T09:32:40.164Z,10.00
2018-01-20T09:35:11.991Z,8.00
2018-01-20T09:37:42.978Z,10.25
2018-01-20T09:40:14.096Z,10.50
2018-01-20T09:42:44.923Z,9.75
2018-01-20T09:45:18.844Z,11.00
2018-01-20T09:47:49.768Z,16.50
2018-01-20T09:50:21.844Z,11.00
2018-01-20T09:52:53.189Z,13.00
2018-01-20T09:55:26.425Z,11.75
2018-01-20T09:57:57.193Z,13.00
2018-01-20T10:00:29.656Z,13.00
2018-01-20T10:03:00.585Z,15.25
2018-01-20T10:05:31.141Z,9.75
2018-01-20T10:08:03.204Z,15.25
2018-01-20T10:10:34.575Z,11.50
2018-01-20T10:13:09.855Z,12.50
2018-01-20T10:15:41.673Z,9.00
2018-01-20T10:18:21.305Z,11.50
2018-01-20T10:20:52.803Z,9.50
2018-01-20T10:23:25.184Z,11.00
2018-01-20T10:25:59.844Z,10.00
2018-01-20T10:28:30.924Z,12.75
2018-01-20T10:31:02.761Z,13.25
2018-01-20T10:33:36.060Z,12.25
2018-01-20T10:36:09.294Z,11.00
2018-01-20T10:38:40.597Z,8.75
2018-01-20T10:41:14.783Z,12.00
2018-01-20T10:43:47.764Z,12.75
2018-01-20T10:46:21.488Z,12.00
2018-01-20T10:48:52.137Z,11.00
2018-01-20T10:51:24.687Z,11.00
2018-01-20T10:53:56.856Z,12.00
2018-01-20T10:56:27.496Z,11.00
2018-01-20T10:58:58.180Z,13.25
2018-01-20T11:01:29.544Z,11.25
2018-01-20T11:04:00.473Z,13.50
2018-01-20T11:06:31.554Z,20.50
2018-01-20T11:09:02.255Z,11.75
2018-01-20T11:11:33.055Z,11.25
2018-01-20T11:14:06.203Z,14.00
2018-01-20T11:16:37.809Z,12.75
2018-01-20T11:19:26.583Z,13.00
2018-01-20T11:22:01.788Z,15.50
2018-01-20T11:24:33.542Z,13.50
2018-01-20T11:27:04.634Z,14.75
2018-01-20T11:29:35.401Z,12.00
2018-01-20T11:32:09.027Z,12.75
2018-01-20T11:35:12.923Z,13.75
2018-01-20T11:37:47.501Z,14.00
2018-01-20T11:40:18.454Z,9.25
2018-01-20T11:42:50.365Z,9.75
2018-01-20T11:45:21.355Z,12.00
2018-01-20T11:47:53.243Z,10.50
2018-01-20T11:50:26.774Z,10.25
2018-01-20T11:52:59.053Z,9.50
2018-01-20T11:55:33.561Z,9.50
2018-01-20T11:58:04.961Z,14.00
2018-01-20T12:00:41.136Z,10.75
2018-01-20T12:05:55.917Z,7.75
2018-01-20T12:08:28.310Z,7.00
2018-01-20T12:10:59.730Z,9.00
2018-01-20T12:13:31.508Z,8.00
2018-01-20T12:16:10.477Z,10.75
2018-01-20T12:18:45.016Z,10.00
2018-01-20T12:21:16.794Z,18.50
2018-01-20T12:23:48.405Z,16.75
2018-01-20T12:26:19.949Z,14.25
2018-01-20T12:28:51.359Z,15.00
2018-01-20T12:31:22.454Z,15.00
2018-01-20T12:33:54.036Z,11.75
2018-01-20T12:36:24.869Z,15.00
2018-01-20T12:38:55.524Z,15.00
2018-01-20T12:41:27.406Z,16.50
2018-01-20T12:44:04.453Z,16.50
2018-01-20T12:46:38.320Z,14.75
2018-01-20T12:49:27.877Z,15.75
2018-01-20T12:51:59.898Z,20.75
2018-01-20T12:54:31.271Z,16.75
2018-01-20T12:57:02.532Z,12.50
2018-01-20T12:59:33.486Z,12.50
2018-01-20T13:02:05.296Z,13.00
2018-01-20T13:04:36.712Z,22.25
2018-01-20T13:07:10.222Z,13.50
2018-01-20T13:09:43.775Z,13.00
2018-01-20T13:12:22.359Z,12.00
2018-01-20T13:14:53.421Z,13.00
2018-01-20T13:17:27.212Z,16.75
2018-01-20T13:19:58.023Z,16.25
2018-01-20T13:22:30.474Z,15.75
2018-01-20T13:25:02.444Z,18.00
2018-01-20T13:27:35.115Z,21.75
2018-01-20T13:30:08.300Z,23.00
2018-01-20T13:32:39.283Z,21.00
2018-01-20T13:35:10.557Z,21.00
2018-01-20T13:37:41.168Z,16.25
2018-01-20T13:40:13.022Z,19.50
2018-01-20T13:42:44.608Z,17.50
2018-01-20T13:45:17.438Z,19.50
2018-01-20T13:47:50.812Z,19.25
2018-01-20T13:50:22.725Z,18.75
2018-01-20T13:52:55.287Z,22.00
2018-01-20T13:55:29.395Z,17.00
2018-01-20T13:58:02.037Z,19.75
2018-01-20T14:03:01.561Z,19.50
2018-01-20T14:05:33.789Z,16.75
2018-01-20T14:08:06.291Z,18.75
2018-01-20T14:10:39.338Z,19.50
2018-01-20T14:13:23.320Z,19.00
2018-01-20T14:15:55.388Z,18.50
2018-01-20T14:18:27.235Z,17.25
2018-01-20T14:20:59.563Z,20.00
2018-01-20T14:23:32.399Z,20.00
2018-01-20T14:26:03.269Z,20.25
2018-01-20T14:28:35.353Z,19.25
2018-01-20T14:31:07.005Z,23.25
2018-01-20T14:33:40.791Z,20.75
2018-01-20T14:36:13.312Z,15.50
2018-01-20T14:38:49.790Z,18.25
2018-01-20T14:41:25.326Z,18.25
2018-01-20T14:43:57.595Z,17.25
2018-01-20T14:46:31.678Z,19.00
2018-01-20T14:49:05.028Z,16.00
2018-01-20T14:51:37.324Z,15.25
2018-01-20T14:54:10.829Z,19.00
2018-01-20T14:56:43.632Z,13.75
2018-01-20T14:59:18.525Z,15.00
2018-01-20T15:01:51.571Z,10.75
2018-01-20T15:04:23.778Z,12.75
2018-01-20T15:06:57.763Z,11.50
2018-01-20T15:09:36.294Z,12.75
2018-01-20T15:12:10.615Z,12.50
2018-01-20T15:14:43.493Z,11.75
2018-01-20T15:17:21.257Z,15.00
2018-01-20T15:19:55.994Z,11.75
2018-01-20T15:22:28.420Z,15.00
2018-01-20T15:25:02.460Z,14.75
2018-01-20T15:27:36.810Z,15.50
2018-01-20T15:30:21.145Z,11.75
2018-01-20T15:32:55.733Z,10.00
2018-01-20T15:35:27.664Z,10.00
2018-01-20T15:38:01.641Z,13.00
2018-01-20T15:40:35.751Z,12.00
2018-01-20T15:43:16.712Z,12.75
2018-01-20T15:45:54.048Z,10.25
2018-01-20T15:48:28.548Z,12.00
2018-01-20T15:51:05.353Z,10.75
2018-01-20T15:53:41.701Z,13.50
2018-01-20T15:56:15.123Z,8.50
2018-01-20T15:58:49.844Z,10.50
2018-01-20T16:01:25.117Z,9.50
2018-01-20T16:04:01.430Z,13.25
2018-01-20T16:06:35.450Z,16.50
2018-01-20T16:09:11.503Z,10.25
2018-01-20T16:11:44.468Z,9.00
2018-01-20T16:14:19.094Z,11.00
2018-01-20T16:16:53.444Z,12.50
2018-01-20T16:19:30.034Z,12.50
2018-01-20T16:22:03.668Z,12.50
2018-01-20T16:24:39.371Z,15.25
2018-01-20T16:27:12.236Z,13.00
2018-01-20T16:29:46.740Z,13.75
2018-01-20T16:32:22.271Z,13.00
2018-01-20T16:34:55.899Z,11.75
2018-01-20T16:37:27.198Z,13.75
2018-01-20T16:39:58.741Z,16.25
2018-01-20T16:42:30.119Z,16.50
2018-01-20T16:45:05.324Z,12.00
2018-01-20T16:47:37.652Z,13.00
2018-01-20T16:50:09.840Z,12.75
2018-01-20T16:52:41.943Z,16.75
2018-01-20T16:55:14.961Z,16.00
2018-01-20T16:57:48.429Z,17.25
2018-01-20T17:00:24.406Z,15.50
2018-01-20T17:02:56.957Z,15.00
2018-01-20T17:05:28.603Z,14.75
2018-01-20T17:08:02.214Z,14.00
2018-01-20T17:10:36.302Z,17.75
2018-01-20T17:13:12.010Z,18.25
2018-01-20T17:15:45.511Z,19.50
2018-01-20T17:18:18.230Z,18.00
2018-01-20T17:20:49.672Z,19.25
2018-01-20T17:23:23.271Z,18.75
2018-01-20T17:26:06.677Z,23.75
2018-01-20T17:28:45.436Z,18.75
2018-01-20T17:31:17.840Z,31.25
2018-01-20T17:33:49.719Z,24.00
2018-01-20T17:36:24.893Z,17.25
2018-01-20T17:38:58.845Z,17.50
2018-01-20T17:41:31.438Z,21.75
2018-01-20T17:44:07.102Z,20.00
2018-01-20T17:46:41.889Z,19.00
2018-01-20T17:49:21.449Z,23.00
2018-01-20T17:51:56.804Z,19.50
2018-01-20T17:54:38.284Z,17.00
2018-01-20T17:57:12.258Z,21.00
2018-01-20T17:59:45.854Z,21.00
2018-01-20T18:02:21.520Z,19.25
2018-01-20T18:04:57.333Z,23.75
2018-01-20T18:07:33.422Z,18.75
2018-01-20T18:10:09.283Z,21.75
2018-01-20T18:12:42.692Z,22.00
2018-01-20T18:15:22.374Z,26.25
2018-01-20T18:17:55.838Z,16.00
2018-01-20T18:20:31.529Z,25.25
2018-01-20T18:23:06.373Z,31.75
2018-01-20T18:25:43.355Z,25.75
2018-01-20T18:28:17.277Z,29.00
2018-01-20T18:30:51.478Z,25.75
2018-01-20T18:33:27.054Z,28.00
2018-01-20T18:36:04.929Z,18.75
2018-01-20T18:38:42.881Z,20.25
2018-01-20T18:41:29.211Z,22.00
2018-01-20T18:44:08.652Z,22.25
2018-01-20T18:46:46.037Z,21.25
2018-01-20T18:49:22.444Z,17.75
2018-01-20T18:51:57.993Z,24.00
2018-01-20T18:54:32.939Z,20.25
2018-01-20T18:57:12.824Z,20.75
2018-01-20T18:59:51.722Z,22.75
2018-01-20T19:02:30.062Z,20.00
2018-01-20T19:05:05.767Z,19.50
2018-01-20T19:07:42.916Z,20.25
2018-01-20T19:10:20.593Z,21.25
2018-01-20T19:12:58.469Z,18.00
2018-01-20T19:15:36.945Z,23.75
2018-01-20T19:18:16.466Z,22.25
2018-01-20T19:20:56.042Z,21.50
2018-01-20T19:23:34.031Z,23.00
2018-01-20T19:26:10.781Z,29.00
2018-01-20T19:28:47.225Z,23.25
2018-01-20T19:31:23.103Z,26.25
2018-01-20T19:33:58.198Z,22.25
2018-01-20T19:36:34.121Z,22.75
2018-01-20T19:39:11.715Z,21.00
2018-01-20T19:41:54.217Z,22.50
2018-01-20T19:44:29.101Z,26.50
2018-01-20T19:47:10.466Z,22.75
2018-01-20T19:49:47.382Z,23.25
2018-01-20T19:52:30.425Z,23.75
2018-01-20T19:55:07.312Z,23.25
2018-01-20T19:57:44.392Z,24.25
2018-01-20T20:00:30.946Z,26.50
2018-01-20T20:03:11.453Z,24.25
2018-01-20T20:08:50.173Z,28.00
2018-01-20T20:11:24.702Z,26.25
2018-01-20T20:14:00.542Z,23.75
2018-01-20T20:16:36.244Z,30.25
2018-01-20T20:19:20.701Z,28.50
2018-01-20T20:21:57.314Z,27.50
2018-01-20T20:24:36.712Z,26.50
2018-01-20T20:27:28.532Z,33.50
2018-01-20T20:30:08.827Z,27.50
2018-01-20T20:35:55.750Z,42.25
2018-01-20T20:38:32.344Z,35.00
2018-01-20T20:41:11.506Z,27.25
2018-01-20T20:43:47.428Z,26.75
2018-01-20T20:46:26.183Z,35.75
2018-01-20T20:49:06.322Z,39.50
2018-01-20T20:51:45.429Z,38.25
2018-01-20T20:54:21.594Z,35.00
2018-01-20T20:57:00.275Z,31.25
2018-01-20T20:59:36.044Z,23.00
2018-01-20T21:02:17.496Z,24.00
2018-01-20T21:04:54.468Z,29.25
2018-01-20T21:07:36.983Z,30.00
2018-01-20T21:10:16.101Z,31.00
2018-01-20T21:12:53.887Z,35.75
2018-01-20T21:15:32.071Z,40.25
2018-01-20T21:18:09.211Z,38.75
2018-01-20T21:20:46.249Z,54.75
2018-01-20T21:23:28.334Z,45.50
2018-01-20T21:26:04.527Z,57.50
2018-01-20T21:28:38.453Z,46.00
2018-01-20T21:31:14.325Z,48.25
2018-01-20T21:34:02.072Z,42.50
2018-01-20T21:36:38.714Z,39.75
2018-01-20T21:39:12.440Z,36.25
2018-01-20T21:41:50.770Z,48.50
2018-01-20T21:44:25.759Z,44.00
2018-01-20T21:47:01.624Z,37.50
2018-01-20T21:49:34.518Z,37.75
2018-01-20T21:52:09.257Z,42.25
2018-01-20T21:54:42.132Z,46.75
2018-01-20T21:57:19.105Z,39.00
2018-01-20T21:59:51.234Z,41.00
2018-01-20T22:02:22.719Z,49.75
2018-01-20T22:04:54.287Z,33.50
2018-01-20T22:07:27.046Z,41.50
2018-01-20T22:09:58.300Z,39.00
2018-01-20T22:12:29.521Z,37.75
2018-01-20T22:15:05.777Z,44.75
2018-01-20T22:17:37.621Z,42.00
2018-01-20T22:20:09.228Z,39.75
2018-01-20T22:22:43.952Z,40.00
2018-01-20T22:25:16.951Z,42.25
2018-01-20T22:27:54.665Z,45.00
2018-01-20T22:30:27.594Z,47.00
2018-01-20T22:32:59.771Z,44.25
2018-01-20T22:35:33.361Z,47.75
2018-01-20T22:38:05.575Z,43.00
2018-01-20T22:40:37.554Z,49.50
2018-01-20T22:43:11.804Z,43.75
2018-01-20T22:45:43.596Z,54.75
2018-01-20T22:48:16.534Z,49.00
2018-01-20T22:50:48.125Z,47.00
2018-01-20T22:53:19.754Z,48.75
2018-01-20T22:55:50.752Z,49.00
2018-01-20T22:58:21.562Z,54.00
2018-01-20T23:00:53.242Z,57.00
2018-01-20T23:03:24.966Z,52.50
2018-01-20T23:05:56.932Z,51.50
2018-01-20T23:08:28.122Z,44.00
2018-01-20T23:11:01.242Z,52.25
2018-01-20T23:13:32.411Z,49.00
2018-01-20T23:16:06.333Z,41.25
2018-01-20T23:18:39.004Z,59.50
2018-01-20T23:21:09.696Z,42.00
2018-01-20T23:23:41.613Z,42.50
2018-01-20T23:26:12.580Z,44.00
2018-01-20T23:28:43.519Z,47.25
2018-01-20T23:31:17.481Z,52.25
2018-01-20T23:33:50.645Z,54.75
2018-01-20T23:36:23.673Z,47.75
2018-01-20T23:38:55.884Z,49.00
2018-01-20T23:41:27.398Z,58.00
2018-01-20T23:43:59.502Z,59.75
2018-01-20T23:46:32.820Z,52.50
2018-01-20T23:49:04.673Z,72.00
2018-01-20T23:51:35.635Z,57.75
2018-01-20T23:54:06.485Z,59.75
2018-01-20T23:56:37.196Z,49.75
2018-01-20T23:59:09.199Z,58.50
